createdAt,value
2023-01-22T00:01:15.684Z,103174.72
2023-01-22T00:03:46.497Z,103167.69
2023-01-22T00:06:15.546Z,103176.50
2023-01-22T00:08:44.173Z,103174.78
2023-01-22T00:11:12.745Z,103171.22
2023-01-22T00:13:42.384Z,103168.53
2023-01-22T00:16:12.184Z,103169.44
2023-01-22T00:18:40.187Z,103167.69
2023-01-22T00:21:08.481Z,103164.09
2023-01-22T00:23:36.427Z,103159.59
2023-01-22T00:26:06.283Z,103159.53
2023-01-22T00:28:34.248Z,103156.91
2023-01-22T00:31:05.001Z,103152.47
2023-01-22T00:33:33.489Z,103160.47
2023-01-22T00:36:05.198Z,103158.78
2023-01-22T00:38:33.119Z,103155.25
2023-01-22T00:41:02.395Z,103157.00
2023-01-22T00:43:30.832Z,103153.56
2023-01-22T00:45:58.814Z,103156.91
2023-01-22T00:48:28.472Z,103162.38
2023-01-22T00:50:56.595Z,103169.41
2023-01-22T00:53:24.717Z,103167.66
2023-01-22T00:55:53.302Z,103163.22
2023-01-22T00:58:21.310Z,103161.41
2023-01-22T01:00:49.504Z,103157.84
2023-01-22T01:03:30.880Z,103154.28
2023-01-22T01:06:02.335Z,103150.69
2023-01-22T01:08:32.500Z,103152.47
2023-01-22T01:11:02.227Z,103154.38
2023-01-22T01:13:31.900Z,103148.00
2023-01-22T01:16:01.645Z,103145.31
2023-01-22T01:18:29.599Z,103139.19
2023-01-22T01:20:58.314Z,103145.34
2023-01-22T01:23:28.564Z,103146.38
2023-01-22T01:25:56.690Z,103156.13
2023-01-22T01:28:24.936Z,103146.31
2023-01-22T01:30:52.941Z,103151.59
2023-01-22T01:33:20.837Z,103148.09
2023-01-22T01:35:48.713Z,103149.03
2023-01-22T01:38:16.738Z,103155.19
2023-01-22T01:40:46.455Z,103156.97
2023-01-22T01:43:17.318Z,103150.78
2023-01-22T01:45:45.679Z,103159.72
2023-01-22T01:48:23.973Z,103161.47
2023-01-22T01:50:55.698Z,103168.59
2023-01-22T01:53:23.779Z,103165.88
2023-01-22T01:55:53.258Z,103157.97
2023-01-22T01:58:22.508Z,103157.84
2023-01-22T02:00:53.201Z,103153.41
2023-01-22T02:03:21.598Z,103156.13
2023-01-22T02:05:49.514Z,103146.31
2023-01-22T02:08:17.885Z,103142.75
2023-01-22T02:10:46.103Z,103143.66
2023-01-22T02:13:19.325Z,103135.63
2023-01-22T02:15:47.514Z,103135.56
2023-01-22T02:18:15.412Z,103136.50
2023-01-22T02:20:53.997Z,103133.84
2023-01-22T02:23:22.053Z,103132.06
2023-01-22T02:25:50.166Z,103126.72
2023-01-22T02:28:18.133Z,103138.34
2023-01-22T02:30:46.360Z,103137.41
2023-01-22T02:33:14.281Z,103133.84
2023-01-22T02:35:42.200Z,103135.63
2023-01-22T02:38:11.494Z,103144.50
2023-01-22T02:40:49.312Z,103145.38
2023-01-22T02:43:17.731Z,103133.84
2023-01-22T02:45:45.663Z,103142.72
2023-01-22T02:48:13.633Z,103137.31
2023-01-22T02:50:41.565Z,103132.06
2023-01-22T02:53:09.487Z,103130.28
2023-01-22T02:55:38.853Z,103137.38
2023-01-22T02:58:06.783Z,103136.53
2023-01-22T03:00:34.867Z,103140.06
2023-01-22T03:03:07.745Z,103137.44
2023-01-22T03:05:35.857Z,103132.88
2023-01-22T03:08:03.772Z,103140.09
2023-01-22T03:10:31.672Z,103137.41
2023-01-22T03:13:18.588Z,103134.69
2023-01-22T03:16:03.873Z,103137.41
2023-01-22T03:18:50.609Z,103134.66
2023-01-22T03:21:18.870Z,103126.69
2023-01-22T03:23:48.163Z,103124.03
2023-01-22T03:26:16.599Z,103124.88
2023-01-22T03:28:46.194Z,103122.22
2023-01-22T03:31:15.095Z,103116.84
2023-01-22T03:33:43.758Z,103113.25
2023-01-22T03:36:13.172Z,103113.34
2023-01-22T03:38:41.174Z,103105.28
2023-01-22T03:41:11.089Z,103107.03
2023-01-22T03:43:39.379Z,103108.91
2023-01-22T03:46:11.427Z,103112.34
2023-01-22T03:48:39.873Z,103101.78
2023-01-22T03:51:08.956Z,103105.25
2023-01-22T03:53:37.216Z,103102.69
2023-01-22T03:56:06.786Z,103101.72
2023-01-22T03:58:35.173Z,103107.94
2023-01-22T04:01:04.402Z,103108.84
2023-01-22T04:03:34.167Z,103107.94
2023-01-22T04:06:02.493Z,103102.56
2023-01-22T04:08:31.621Z,103102.63
2023-01-22T04:11:00.299Z,103107.03
2023-01-22T04:13:29.920Z,103107.91
2023-01-22T04:15:57.858Z,103112.38
2023-01-22T04:18:25.742Z,103107.84
2023-01-22T04:20:55.328Z,103109.63
2023-01-22T04:23:24.075Z,103101.78
2023-01-22T04:25:52.259Z,103107.03
2023-01-22T04:28:20.860Z,103112.34
2023-01-22T04:30:51.610Z,103107.91
2023-01-22T04:33:19.600Z,103099.94
2023-01-22T04:35:50.958Z,103099.91
2023-01-22T04:38:20.245Z,103095.50
2023-01-22T04:40:48.174Z,103093.63
2023-01-22T04:43:16.076Z,103088.34
2023-01-22T04:45:43.984Z,103086.56
2023-01-22T04:48:12.767Z,103091.94
2023-01-22T04:50:40.728Z,103089.16
2023-01-22T04:53:08.655Z,103084.75
2023-01-22T04:55:37.924Z,103082.13
2023-01-22T04:58:05.843Z,103080.28
2023-01-22T05:00:33.742Z,103073.16
2023-01-22T05:03:02.692Z,103082.13
2023-01-22T05:05:31.429Z,103082.03
2023-01-22T05:07:59.669Z,103077.59
2023-01-22T05:10:27.978Z,103083.06
2023-01-22T05:12:57.984Z,103082.03
2023-01-22T05:15:25.900Z,103087.38
2023-01-22T05:17:54.067Z,103080.19
2023-01-22T05:20:22.076Z,103081.06
2023-01-22T05:22:50.007Z,103083.78
2023-01-22T05:25:18.059Z,103085.56
2023-01-22T05:27:45.972Z,103092.59
2023-01-22T05:30:15.865Z,103090.00
2023-01-22T05:32:43.884Z,103092.72
2023-01-22T05:35:12.381Z,103098.06
2023-01-22T05:37:40.330Z,103095.34
2023-01-22T05:40:09.744Z,103087.34
2023-01-22T05:42:37.681Z,103089.16
2023-01-22T05:45:06.344Z,103089.97
2023-01-22T05:47:35.622Z,103091.75
2023-01-22T05:50:03.629Z,103085.63
2023-01-22T05:52:31.543Z,103083.81
2023-01-22T05:55:00.007Z,103085.59
2023-01-22T05:57:29.839Z,103082.81
2023-01-22T05:59:57.714Z,103085.53
2023-01-22T06:02:25.654Z,103082.91
2023-01-22T06:04:54.938Z,103090.88
2023-01-22T06:07:23.127Z,103089.13
2023-01-22T06:09:51.051Z,103095.28
2023-01-22T06:12:19.192Z,103096.22
2023-01-22T06:14:47.082Z,103084.66
2023-01-22T06:17:15.373Z,103100.63
2023-01-22T06:19:43.287Z,103096.22
2023-01-22T06:22:12.619Z,103099.81
2023-01-22T06:24:40.539Z,103102.56
2023-01-22T06:27:08.452Z,103096.28
2023-01-22T06:29:37.274Z,103091.75
2023-01-22T06:32:06.819Z,103096.25
2023-01-22T06:34:34.755Z,103099.81
2023-01-22T06:37:02.683Z,103098.91
2023-01-22T06:39:31.987Z,103096.16
2023-01-22T06:41:59.879Z,103101.63
2023-01-22T06:44:27.776Z,103099.78
2023-01-22T06:46:55.700Z,103103.31
2023-01-22T06:49:23.599Z,103116.69
2023-01-22T06:51:51.534Z,103106.97
2023-01-22T06:54:19.430Z,103108.75
2023-01-22T06:56:48.746Z,103113.13
2023-01-22T06:59:16.684Z,103110.53
2023-01-22T07:01:44.613Z,103115.84
2023-01-22T07:04:12.527Z,103118.47
2023-01-22T07:06:40.458Z,103118.47
2023-01-22T07:09:08.353Z,103122.91
2023-01-22T07:11:36.339Z,103123.84
2023-01-22T07:14:05.730Z,103130.00
2023-01-22T07:16:33.677Z,103123.78
2023-01-22T07:19:01.679Z,103129.97
2023-01-22T07:21:29.639Z,103122.81
2023-01-22T07:23:57.551Z,103119.31
2023-01-22T07:26:25.452Z,103129.13
2023-01-22T07:28:53.336Z,103124.66
2023-01-22T07:31:22.822Z,103132.75
2023-01-22T07:33:50.698Z,103130.00
2023-01-22T07:36:18.587Z,103137.16
2023-01-22T07:38:46.474Z,103134.47
2023-01-22T07:41:25.535Z,103135.31
2023-01-22T07:43:56.156Z,103140.66
2023-01-22T07:46:25.595Z,103142.41
2023-01-22T07:48:53.578Z,103149.53
2023-01-22T07:51:21.863Z,103153.13
2023-01-22T07:53:49.975Z,103146.09
2023-01-22T07:56:19.295Z,103162.03
2023-01-22T07:58:47.271Z,103158.50
2023-01-22T08:01:15.760Z,103164.66
2023-01-22T08:03:45.392Z,103164.69
2023-01-22T08:06:15.991Z,103169.16
2023-01-22T08:08:43.895Z,103168.31
2023-01-22T08:11:11.836Z,103171.78
2023-01-22T08:13:39.733Z,103167.34
2023-01-22T08:16:09.388Z,103172.72
2023-01-22T08:18:37.659Z,103185.13
2023-01-22T08:21:07.314Z,103183.38
2023-01-22T08:23:35.232Z,103187.81
2023-01-22T08:26:04.097Z,103187.78
2023-01-22T08:28:32.656Z,103182.38
2023-01-22T08:31:00.799Z,103191.28
2023-01-22T08:33:29.150Z,103196.66
2023-01-22T08:35:57.128Z,103194.91
2023-01-22T08:38:26.491Z,103190.41
2023-01-22T08:40:54.505Z,103199.31
2023-01-22T08:43:22.428Z,103186.91
2023-01-22T08:45:50.524Z,103196.66
2023-01-22T08:48:18.922Z,103196.66
2023-01-22T08:50:47.025Z,103201.97
2023-01-22T08:53:14.970Z,103196.63
2023-01-22T08:55:50.070Z,103196.63
2023-01-22T08:58:18.232Z,103205.50
2023-01-22T09:00:46.167Z,103196.63
2023-01-22T09:03:14.262Z,103194.78
2023-01-22T09:05:42.151Z,103199.22
2023-01-22T09:08:10.134Z,103195.72
2023-01-22T09:10:38.034Z,103198.38
2023-01-22T09:13:07.546Z,103192.16
2023-01-22T09:15:35.524Z,103195.66
2023-01-22T09:18:03.420Z,103196.56
2023-01-22T09:20:31.292Z,103194.78
2023-01-22T09:22:59.294Z,103198.31
2023-01-22T09:25:27.344Z,103200.09
2023-01-22T09:27:59.066Z,103190.25
2023-01-22T09:30:30.349Z,103192.03
2023-01-22T09:32:58.611Z,103192.00
2023-01-22T09:35:27.581Z,103195.53
2023-01-22T09:37:55.819Z,103195.56
2023-01-22T09:40:27.213Z,103190.22
2023-01-22T09:43:03.777Z,103203.56
2023-01-22T09:45:34.690Z,103192.81
2023-01-22T09:48:05.179Z,103213.31
2023-01-22T09:50:34.650Z,103213.31
2023-01-22T09:53:04.667Z,103208.81
2023-01-22T09:55:34.423Z,103205.22
2023-01-22T09:58:05.731Z,103216.81
2023-01-22T10:00:39.734Z,103218.59
2023-01-22T10:03:12.756Z,103206.97
2023-01-22T10:05:44.050Z,103212.31
2023-01-22T10:08:14.633Z,103200.75
2023-01-22T10:10:42.650Z,103202.53
2023-01-22T10:13:15.843Z,103209.63
2023-01-22T10:15:45.614Z,103198.94
2023-01-22T10:18:28.987Z,103205.16
2023-01-22T10:20:57.136Z,103204.28
2023-01-22T10:23:27.620Z,103195.34
2023-01-22T10:25:58.312Z,103203.38
2023-01-22T10:28:28.371Z,103197.09
2023-01-22T10:30:59.145Z,103192.63
2023-01-22T10:33:28.641Z,103195.28
2023-01-22T10:35:58.045Z,103194.34
2023-01-22T10:38:28.221Z,103186.25
2023-01-22T10:40:59.856Z,103175.59
2023-01-22T10:43:35.374Z,103185.34
2023-01-22T10:46:07.575Z,103185.34
2023-01-22T10:48:35.566Z,103182.66
2023-01-22T10:51:14.533Z,103186.19
2023-01-22T10:53:47.777Z,103183.44
2023-01-22T10:56:26.679Z,103181.66
2023-01-22T10:58:54.890Z,103184.25
2023-01-22T11:01:29.700Z,103175.38
2023-01-22T11:03:57.693Z,103171.78
2023-01-22T11:06:28.895Z,103169.00
2023-01-22T11:09:01.457Z,103170.00
2023-01-22T11:11:34.599Z,103173.34
2023-01-22T11:14:04.684Z,103171.66
2023-01-22T11:16:37.626Z,103172.41
2023-01-22T11:19:08.554Z,103170.75
2023-01-22T11:21:38.811Z,103167.13
2023-01-22T11:24:13.328Z,103175.13
2023-01-22T11:27:05.271Z,103165.28
2023-01-22T11:30:03.940Z,103160.81
2023-01-22T11:32:50.827Z,103167.97
2023-01-22T11:35:23.932Z,103163.34
2023-01-22T11:38:07.937Z,103168.72
2023-01-22T11:40:37.103Z,103153.66
2023-01-22T11:43:22.629Z,103153.47
2023-01-22T11:46:01.526Z,103152.63
2023-01-22T11:48:48.843Z,103142.63
2023-01-22T11:51:25.009Z,103146.34
2023-01-22T11:54:01.554Z,103142.66
2023-01-22T11:56:42.003Z,103152.50
2023-01-22T11:59:12.945Z,103139.03
2023-01-22T12:01:56.160Z,103140.91
2023-01-22T12:04:36.829Z,103143.56
2023-01-22T12:07:19.275Z,103141.75
2023-01-22T12:09:56.669Z,103145.28
2023-01-22T12:12:34.476Z,103150.53
2023-01-22T12:15:18.287Z,103157.66
2023-01-22T12:17:56.071Z,103150.63
2023-01-22T12:20:37.578Z,103154.09
2023-01-22T12:23:09.193Z,103146.91
2023-01-22T12:25:41.142Z,103152.25
2023-01-22T12:28:16.494Z,103141.59
2023-01-22T12:30:48.956Z,103144.09
2023-01-22T12:33:20.384Z,103137.84
2023-01-22T12:35:51.714Z,103140.56
2023-01-22T12:38:27.864Z,103145.94
2023-01-22T12:41:19.645Z,103129.88
2023-01-22T12:43:52.204Z,103131.50
2023-01-22T12:46:26.617Z,103134.16
2023-01-22T12:49:00.863Z,103141.19
2023-01-22T12:51:38.103Z,103141.31
2023-01-22T12:54:11.351Z,103142.91
2023-01-22T12:56:39.274Z,103142.13
2023-01-22T12:59:07.199Z,103138.56
2023-01-22T13:01:36.798Z,103151.00
2023-01-22T13:04:07.789Z,103148.31
2023-01-22T13:06:38.456Z,103147.34
2023-01-22T13:09:08.231Z,103144.56
2023-01-22T13:11:37.685Z,103142.88
2023-01-22T13:14:15.343Z,103146.34
2023-01-22T13:16:51.875Z,103144.59
2023-01-22T13:19:22.744Z,103145.44
2023-01-22T13:21:52.631Z,103142.91
2023-01-22T13:24:21.985Z,103144.69
2023-01-22T13:26:54.885Z,103146.59
2023-01-22T13:29:27.291Z,103145.63
2023-01-22T13:31:56.504Z,103148.28
2023-01-22T13:34:24.825Z,103145.66
2023-01-22T13:36:55.522Z,103147.34
2023-01-22T13:39:26.894Z,103150.97
2023-01-22T13:41:56.202Z,103155.56
2023-01-22T13:44:25.768Z,103156.44
2023-01-22T13:46:54.131Z,103158.19
2023-01-22T13:49:24.109Z,103161.81
2023-01-22T13:51:53.659Z,103167.16
2023-01-22T13:54:25.559Z,103162.69
2023-01-22T13:56:53.529Z,103168.94
2023-01-22T13:59:23.590Z,103164.47
2023-01-22T14:01:51.835Z,103168.00
2023-01-22T14:04:34.482Z,103171.56
2023-01-22T14:07:04.177Z,103168.00
2023-01-22T14:09:33.769Z,103172.41
2023-01-22T14:12:02.345Z,103174.25
2023-01-22T14:14:40.106Z,103172.41
2023-01-22T14:17:08.104Z,103176.09
2023-01-22T14:19:36.041Z,103169.81
2023-01-22T14:22:05.330Z,103177.78
2023-01-22T14:24:33.225Z,103185.00
2023-01-22T14:27:01.149Z,103182.31
2023-01-22T14:29:29.085Z,103184.06
2023-01-22T14:31:57.012Z,103180.53
2023-01-22T14:34:25.018Z,103177.03
2023-01-22T14:36:54.172Z,103188.56
2023-01-22T14:39:23.471Z,103194.78
2023-01-22T14:41:51.421Z,103193.03
2023-01-22T14:44:19.966Z,103199.19
2023-01-22T14:46:48.765Z,103192.09
2023-01-22T14:49:16.665Z,103201.97
2023-01-22T14:51:44.600Z,103201.97
2023-01-22T14:54:12.514Z,103203.69
2023-01-22T14:56:41.829Z,103205.50
2023-01-22T14:59:09.711Z,103212.63
2023-01-22T15:01:37.657Z,103208.06
2023-01-22T15:04:05.901Z,103215.34
2023-01-22T15:06:33.983Z,103215.38
2023-01-22T15:09:02.062Z,103216.25
2023-01-22T15:11:29.950Z,103218.06
2023-01-22T15:13:59.282Z,103219.88
2023-01-22T15:16:27.281Z,103221.69
2023-01-22T15:18:56.471Z,103225.19
2023-01-22T15:21:24.545Z,103231.50
2023-01-22T15:23:52.456Z,103230.56
2023-01-22T15:26:25.934Z,103235.00
2023-01-22T15:28:54.668Z,103238.59
2023-01-22T15:31:24.359Z,103237.75
2023-01-22T15:33:52.298Z,103240.41
2023-01-22T15:36:20.480Z,103238.63
2023-01-22T15:38:48.416Z,103235.88
2023-01-22T15:41:21.971Z,103231.44
2023-01-22T15:43:51.804Z,103239.44
2023-01-22T15:46:20.240Z,103243.03
2023-01-22T15:48:50.020Z,103251.09
2023-01-22T15:51:18.186Z,103257.38
2023-01-22T15:53:49.249Z,103251.94
2023-01-22T15:56:17.163Z,103260.84
2023-01-22T15:58:45.072Z,103250.28
2023-01-22T16:01:13.169Z,103260.03
2023-01-22T16:03:41.156Z,103260.91
2023-01-22T16:06:11.980Z,103266.22
2023-01-22T16:08:40.246Z,103267.13
2023-01-22T16:11:08.340Z,103263.53
2023-01-22T16:13:36.928Z,103262.72
2023-01-22T16:16:07.381Z,103268.03
2023-01-22T16:18:36.379Z,103268.94
2023-01-22T16:21:05.056Z,103264.47
2023-01-22T16:23:36.584Z,103269.88
2023-01-22T16:26:06.874Z,103266.25
2023-01-22T16:28:34.778Z,103269.81
2023-01-22T16:31:04.009Z,103265.31
2023-01-22T16:33:33.660Z,103272.50
2023-01-22T16:36:02.338Z,103275.16
2023-01-22T16:38:31.491Z,103274.28
2023-01-22T16:41:09.042Z,103277.81
2023-01-22T16:43:37.276Z,103279.63
2023-01-22T16:46:05.554Z,103269.75
2023-01-22T16:48:33.530Z,103277.84
2023-01-22T16:51:01.467Z,103278.75
2023-01-22T16:53:29.416Z,103273.31
2023-01-22T16:55:57.372Z,103278.72
2023-01-22T16:58:26.690Z,103284.00
2023-01-22T17:00:54.586Z,103284.09
2023-01-22T17:03:22.462Z,103288.53
2023-01-22T17:05:50.412Z,103282.28
2023-01-22T17:08:18.407Z,103277.78
2023-01-22T17:10:46.356Z,103280.53
2023-01-22T17:13:14.492Z,103276.84
2023-01-22T17:15:47.251Z,103271.53
2023-01-22T17:18:15.521Z,103274.16
2023-01-22T17:20:57.402Z,103269.75
2023-01-22T17:23:29.634Z,103272.41
2023-01-22T17:25:57.679Z,103284.94
2023-01-22T17:28:25.620Z,103283.13
2023-01-22T17:30:55.001Z,103282.28
2023-01-22T17:33:24.403Z,103281.28
2023-01-22T17:35:52.338Z,103279.59
2023-01-22T17:38:20.432Z,103281.28
2023-01-22T17:40:48.327Z,103286.56
2023-01-22T17:43:16.249Z,103289.38
2023-01-22T17:45:44.191Z,103299.16
2023-01-22T17:48:13.565Z,103298.34
2023-01-22T17:50:41.516Z,103300.94
2023-01-22T17:53:09.440Z,103295.63
2023-01-22T17:55:39.977Z,103293.84
2023-01-22T17:58:07.956Z,103306.38
2023-01-22T18:00:37.866Z,103298.34
2023-01-22T18:03:05.867Z,103305.47
2023-01-22T18:05:35.625Z,103303.72
2023-01-22T18:08:03.830Z,103308.13
2023-01-22T18:10:32.341Z,103309.94
2023-01-22T18:13:00.323Z,103316.16
2023-01-22T18:15:28.300Z,103316.16
2023-01-22T18:17:56.329Z,103317.88
2023-01-22T18:20:24.912Z,103311.72
2023-01-22T18:22:54.553Z,103314.41
2023-01-22T18:25:22.456Z,103319.72
2023-01-22T18:27:50.412Z,103326.84
2023-01-22T18:30:18.673Z,103321.47
2023-01-22T18:32:46.644Z,103328.69
2023-01-22T18:35:14.570Z,103323.28
2023-01-22T18:37:42.487Z,103325.09
2023-01-22T18:40:14.441Z,103323.31
2023-01-22T18:42:42.368Z,103325.03
2023-01-22T18:45:11.234Z,103324.16
2023-01-22T18:47:39.142Z,103326.84
2023-01-22T18:50:09.987Z,103327.66
2023-01-22T18:52:37.867Z,103333.03
2023-01-22T18:55:06.476Z,103341.13
2023-01-22T18:57:44.859Z,103338.38
2023-01-22T19:00:15.514Z,103349.97
2023-01-22T19:02:43.515Z,103356.25
2023-01-22T19:05:11.876Z,103358.03
2023-01-22T19:07:39.764Z,103346.50
2023-01-22T19:10:08.897Z,103357.22
2023-01-22T19:12:38.142Z,103360.78
2023-01-22T19:15:07.043Z,103359.84
2023-01-22T19:17:34.928Z,103358.97
2023-01-22T19:20:03.710Z,103367.88
2023-01-22T19:22:31.628Z,103366.97
2023-01-22T19:25:00.298Z,103360.72
2023-01-22T19:27:28.195Z,103367.88
2023-01-22T19:29:57.574Z,103364.28
2023-01-22T19:32:27.867Z,103367.88
2023-01-22T19:34:55.859Z,103364.28
2023-01-22T19:37:24.330Z,103365.22
2023-01-22T19:39:52.376Z,103375.94
2023-01-22T19:42:20.294Z,103376.84
2023-01-22T19:44:48.416Z,103377.72
2023-01-22T19:47:18.400Z,103384.88
2023-01-22T19:49:46.332Z,103383.97
2023-01-22T19:52:14.582Z,103391.09
2023-01-22T19:54:47.372Z,103391.09
2023-01-22T19:57:15.950Z,103397.31
2023-01-22T19:59:43.907Z,103400.84
2023-01-22T20:02:14.419Z,103401.81
2023-01-22T20:04:56.748Z,103414.28
2023-01-22T20:07:25.270Z,103415.16
2023-01-22T20:09:55.119Z,103422.34
2023-01-22T20:12:23.464Z,103430.38
2023-01-22T20:14:51.519Z,103426.81
2023-01-22T20:17:19.423Z,103436.63
2023-01-22T20:19:48.718Z,103426.81
2023-01-22T20:22:16.669Z,103431.28
2023-01-22T20:24:44.581Z,103441.09
2023-01-22T20:27:12.577Z,103438.41
2023-01-22T20:29:40.726Z,103435.72
2023-01-22T20:32:08.960Z,103438.41
2023-01-22T20:34:36.909Z,103442.00
2023-01-22T20:37:06.182Z,103433.97
2023-01-22T20:39:34.123Z,103428.63
2023-01-22T20:42:02.022Z,103436.66
2023-01-22T20:44:31.364Z,103443.81
2023-01-22T20:46:59.262Z,103442.91
2023-01-22T20:49:27.218Z,103442.00
2023-01-22T20:51:55.177Z,103442.94
2023-01-22T20:54:24.531Z,103442.94
2023-01-22T20:56:52.611Z,103437.59
2023-01-22T20:59:20.535Z,103442.00
2023-01-22T21:01:48.615Z,103437.59
2023-01-22T21:04:17.665Z,103442.09
2023-01-22T21:06:45.685Z,103436.69
2023-01-22T21:09:13.961Z,103442.97
2023-01-22T21:11:43.909Z,103440.31
2023-01-22T21:14:15.937Z,103444.75
2023-01-22T21:16:45.254Z,103447.47
2023-01-22T21:19:17.376Z,103446.59
2023-01-22T21:21:45.642Z,103444.78
2023-01-22T21:24:13.729Z,103444.78
2023-01-22T21:26:43.087Z,103436.75
2023-01-22T21:29:15.034Z,103437.66
2023-01-22T21:31:43.743Z,103443.03
2023-01-22T21:34:11.905Z,103435.88
2023-01-22T21:36:41.251Z,103440.38
2023-01-22T21:39:14.359Z,103445.72
2023-01-22T21:41:44.307Z,103444.84
2023-01-22T21:44:30.655Z,103445.72
2023-01-22T21:46:58.659Z,103443.03
2023-01-22T21:49:26.559Z,103445.72
2023-01-22T21:51:56.591Z,103454.69
2023-01-22T21:54:26.828Z,103457.34
2023-01-22T21:56:56.460Z,103458.25
2023-01-22T21:59:24.481Z,103455.59
2023-01-22T22:01:54.470Z,103463.63
2023-01-22T22:04:24.002Z,103465.38
2023-01-22T22:06:52.161Z,103466.31
2023-01-22T22:09:22.158Z,103468.13
2023-01-22T22:11:50.050Z,103470.78
2023-01-22T22:14:21.154Z,103469.88
2023-01-22T22:16:49.884Z,103478.81
2023-01-22T22:19:19.217Z,103484.16
2023-01-22T22:21:47.254Z,103481.47
2023-01-22T22:24:15.846Z,103485.06
2023-01-22T22:26:43.864Z,103478.84
2023-01-22T22:29:11.944Z,103489.53
2023-01-22T22:31:41.320Z,103491.31
2023-01-22T22:34:09.443Z,103489.53
2023-01-22T22:36:37.444Z,103493.09
2023-01-22T22:39:07.120Z,103490.44
2023-01-22T22:41:37.181Z,103491.34
2023-01-22T22:44:05.764Z,103491.34
2023-01-22T22:46:36.465Z,103486.91
2023-01-22T22:49:06.482Z,103494.00
2023-01-22T22:51:36.075Z,103496.72
2023-01-22T22:54:07.709Z,103490.47
2023-01-22T22:56:35.725Z,103494.97
2023-01-22T22:59:05.277Z,103491.38
2023-01-22T23:01:33.602Z,103486.00
2023-01-22T23:04:01.716Z,103489.56
2023-01-22T23:06:32.875Z,103489.59
2023-01-22T23:09:01.700Z,103487.78
2023-01-22T23:11:32.158Z,103487.78
2023-01-22T23:14:01.491Z,103492.28
2023-01-22T23:16:31.798Z,103492.28
2023-01-22T23:19:01.286Z,103486.94
2023-01-22T23:21:30.649Z,103494.06
2023-01-22T23:23:58.591Z,103487.84
2023-01-22T23:26:29.831Z,103496.78
2023-01-22T23:29:00.498Z,103493.19
2023-01-22T23:31:29.645Z,103492.31
2023-01-22T23:33:58.016Z,103495.91
2023-01-22T23:36:26.725Z,103495.91
2023-01-22T23:38:56.108Z,103495.06
2023-01-22T23:41:24.599Z,103493.25
2023-01-22T23:43:52.523Z,103501.28
2023-01-22T23:46:22.550Z,103504.00
2023-01-22T23:48:50.951Z,103500.41
2023-01-22T23:51:19.869Z,103499.53
2023-01-22T23:53:50.093Z,103501.31
2023-01-22T23:56:20.495Z,103506.66
2023-01-22T23:58:48.484Z,103505.78
